CheckWX is a tool to help pilots better visualize weather data.  It is not intended as a substitute for an official pre-flight weather briefing.

09:26:50 UTC

KEKY METAR
Bessemer Airport
Bessemer, Alabama, USA
Current

31 mins ago

KEKY 200856Z AUTO 13011G21KT 2 1/2SM BR OVC002 08/08 A3004 RMK AO2 SLP196 T00780078 58009
Observed
Feb-20 @ 08:56 UTC
Wind
  • 130° at 11 KTS
  • Gusting to 21 KTS
Visibility
4,023 meters
Flight Rules
LIFR
Conditions
Mist
Cloud Levels
  • Overcast at 200' AGL
Temperature
C / 46°F
Dewpoint
C / 46°F
Humidity
100%
Altimeter
30.04" Hg
Pressure
1019.6 hPa
Previous

1 hour ago

KEKY 200826Z AUTO 12010G21KT 2 1/2SM BR OVC002 08/08 A3006 RMK AO2
Observed
Feb-20 @ 08:26 UTC
Wind
  • 120° at 10 KTS
  • Gusting to 21 KTS
Visibility
4,023 meters
Flight Rules
LIFR
Conditions
Mist
Cloud Levels
  • Overcast at 200' AGL
Temperature
C / 46°F
Dewpoint
C / 46°F
Humidity
100%
Altimeter
30.06" Hg
Pressure
1017.92 hPa
Previous

2 hours ago

KEKY 200756Z AUTO 12015G19KT 3SM BR OVC002 07/07 A3007 RMK AO2 SLP205 T00720072
Observed
Feb-20 @ 07:56 UTC
Wind
  • 120° at 15 KTS
  • Gusting to 19 KTS
Visibility
4,828 meters
Flight Rules
LIFR
Conditions
Mist
Cloud Levels
  • Overcast at 200' AGL
Temperature
C / 45°F
Dewpoint
C / 45°F
Humidity
100%
Altimeter
30.07" Hg
Pressure
1020.5 hPa